sensor_id;sensor_type;location;lat;lon;timestamp;pressure;altitude;pressure_sealevel;temperature;humidity
70200;BME280;57587;55.688;37.600;2022-09-01T00:01:48;98787.47;;;13.31;58.80
70200;BME280;57587;55.688;37.600;2022-09-01T00:04:22;98795.91;;;13.34;59.15
70200;BME280;57587;55.688;37.600;2022-09-01T00:06:52;98798.59;;;13.34;58.71
70200;BME280;57587;55.688;37.600;2022-09-01T00:09:25;98792.94;;;13.43;58.68
70200;BME280;57587;55.688;37.600;2022-09-01T00:11:54;98794.44;;;13.38;58.93
70200;BME280;57587;55.688;37.600;2022-09-01T00:14:29;98804.81;;;13.35;58.49
70200;BME280;57587;55.688;37.600;2022-09-01T00:16:58;98794.53;;;13.25;58.26
70200;BME280;57587;55.688;37.600;2022-09-01T00:19:26;98792.56;;;13.14;58.87
70200;BME280;57587;55.688;37.600;2022-09-01T00:21:53;98790.91;;;13.13;59.08
70200;BME280;57587;55.688;37.600;2022-09-01T00:24:21;98803.34;;;13.07;59.16
70200;BME280;57587;55.688;37.600;2022-09-01T00:26:48;98811.25;;;13.02;59.60
70200;BME280;57587;55.688;37.600;2022-09-01T00:29:15;98802.56;;;13.00;59.43
70200;BME280;57587;55.688;37.600;2022-09-01T00:31:45;98808.78;;;13.01;59.58
70200;BME280;57587;55.688;37.600;2022-09-01T00:34:12;98812.06;;;13.03;59.28
70200;BME280;57587;55.688;37.600;2022-09-01T00:36:40;98806.03;;;13.07;59.54
70200;BME280;57587;55.688;37.600;2022-09-01T00:39:07;98799.25;;;13.05;59.23
70200;BME280;57587;55.688;37.600;2022-09-01T00:41:38;98810.13;;;13.10;59.17
70200;BME280;57587;55.688;37.600;2022-09-01T00:44:13;98806.00;;;13.14;58.97
70200;BME280;57587;55.688;37.600;2022-09-01T00:46:47;98804.28;;;13.20;59.12
70200;BME280;57587;55.688;37.600;2022-09-01T00:52:16;98812.56;;;13.18;58.98
70200;BME280;57587;55.688;37.600;2022-09-01T00:54:49;98802.44;;;13.20;58.92
70200;BME280;57587;55.688;37.600;2022-09-01T00:57:19;98803.22;;;13.27;58.50
70200;BME280;57587;55.688;37.600;2022-09-01T00:59:59;98806.31;;;13.24;58.19
70200;BME280;57587;55.688;37.600;2022-09-01T01:02:29;98814.00;;;13.21;58.16
70200;BME280;57587;55.688;37.600;2022-09-01T01:04:56;98816.44;;;13.22;58.30
70200;BME280;57587;55.688;37.600;2022-09-01T01:07:26;98807.19;;;13.18;58.14
70200;BME280;57587;55.688;37.600;2022-09-01T01:09:54;98818.53;;;13.20;58.33
70200;BME280;57587;55.688;37.600;2022-09-01T01:12:22;98816.28;;;13.17;58.09
70200;BME280;57587;55.688;37.600;2022-09-01T01:14:49;98816.28;;;13.17;57.91
70200;BME280;57587;55.688;37.600;2022-09-01T01:17:20;98810.38;;;13.08;57.96
70200;BME280;57587;55.688;37.600;2022-09-01T01:19:50;98807.72;;;13.02;57.84
70200;BME280;57587;55.688;37.600;2022-09-01T01:23:12;98804.72;;;12.91;58.16
70200;BME280;57587;55.688;37.600;2022-09-01T01:25:41;98796.69;;;12.85;58.57
70200;BME280;57587;55.688;37.600;2022-09-01T01:28:17;98802.03;;;12.91;58.52
70200;BME280;57587;55.688;37.600;2022-09-01T01:30:53;98798.31;;;12.92;58.68
70200;BME280;57587;55.688;37.600;2022-09-01T01:33:24;98797.25;;;12.93;57.91
70200;BME280;57587;55.688;37.600;2022-09-01T01:35:52;98804.75;;;12.85;58.45
70200;BME280;57587;55.688;37.600;2022-09-01T01:38:26;98798.56;;;12.84;58.66
70200;BME280;57587;55.688;37.600;2022-09-01T01:40:55;98796.09;;;12.83;58.16
70200;BME280;57587;55.688;37.600;2022-09-01T01:43:24;98793.91;;;12.73;58.12
70200;BME280;57587;55.688;37.600;2022-09-01T01:45:55;98794.16;;;12.65;58.15
70200;BME280;57587;55.688;37.600;2022-09-01T01:48:29;98798.31;;;12.61;58.75
70200;BME280;57587;55.688;37.600;2022-09-01T01:51:00;98790.25;;;12.61;58.92
70200;BME280;57587;55.688;37.600;2022-09-01T01:53:28;98801.19;;;12.59;58.53
70200;BME280;57587;55.688;37.600;2022-09-01T01:55:56;98792.56;;;12.51;58.63
70200;BME280;57587;55.688;37.600;2022-09-01T01:58:30;98799.41;;;12.46;59.12
70200;BME280;57587;55.688;37.600;2022-09-01T02:00:57;98801.75;;;12.36;59.47
70200;BME280;57587;55.688;37.600;2022-09-01T02:03:26;98799.66;;;12.38;59.14
70200;BME280;57587;55.688;37.600;2022-09-01T02:05:54;98793.06;;;12.34;59.37
70200;BME280;57587;55.688;37.600;2022-09-01T02:08:23;98796.00;;;12.33;59.55
70200;BME280;57587;55.688;37.600;2022-09-01T02:10:53;98796.44;;;12.23;59.72
70200;BME280;57587;55.688;37.600;2022-09-01T02:13:24;98793.97;;;12.21;59.59
70200;BME280;57587;55.688;37.600;2022-09-01T02:15:54;98799.53;;;12.20;59.44
70200;BME280;57587;55.688;37.600;2022-09-01T02:18:25;98799.38;;;12.15;59.09
70200;BME280;57587;55.688;37.600;2022-09-01T02:20:57;98801.25;;;12.01;59.40
70200;BME280;57587;55.688;37.600;2022-09-01T02:23:24;98797.00;;;11.80;60.31
70200;BME280;57587;55.688;37.600;2022-09-01T02:25:55;98789.78;;;11.74;60.53
70200;BME280;57587;55.688;37.600;2022-09-01T02:28:47;98797.00;;;11.67;60.96
70200;BME280;57587;55.688;37.600;2022-09-01T02:31:52;98801.56;;;11.60;60.56
70200;BME280;57587;55.688;37.600;2022-09-01T02:34:20;98798.28;;;11.51;61.03
70200;BME280;57587;55.688;37.600;2022-09-01T02:36:53;98806.13;;;11.52;61.17
70200;BME280;57587;55.688;37.600;2022-09-01T02:39:27;98798.69;;;11.48;60.73
70200;BME280;57587;55.688;37.600;2022-09-01T02:41:55;98802.81;;;11.50;61.13
70200;BME280;57587;55.688;37.600;2022-09-01T02:44:24;98793.34;;;11.48;61.18
70200;BME280;57587;55.688;37.600;2022-09-01T02:46:54;98801.56;;;11.53;60.91
70200;BME280;57587;55.688;37.600;2022-09-01T02:49:23;98806.72;;;11.54;61.23
70200;BME280;57587;55.688;37.600;2022-09-01T02:51:57;98805.69;;;11.56;61.14
70200;BME280;57587;55.688;37.600;2022-09-01T02:54:30;98800.94;;;11.51;60.83
70200;BME280;57587;55.688;37.600;2022-09-01T02:56:58;98797.22;;;11.52;60.96
70200;BME280;57587;55.688;37.600;2022-09-01T02:59:27;98800.34;;;11.56;61.17
70200;BME280;57587;55.688;37.600;2022-09-01T03:01:58;98807.75;;;11.53;60.77
70200;BME280;57587;55.688;37.600;2022-09-01T03:04:25;98789.19;;;11.52;60.79
70200;BME280;57587;55.688;37.600;2022-09-01T03:07:04;98795.59;;;11.51;60.33
70200;BME280;57587;55.688;37.600;2022-09-01T03:09:32;98790.66;;;11.48;60.79
70200;BME280;57587;55.688;37.600;2022-09-01T03:12:02;98801.34;;;11.54;60.78
70200;BME280;57587;55.688;37.600;2022-09-01T03:14:29;98802.19;;;11.62;60.61
70200;BME280;57587;55.688;37.600;2022-09-01T03:16:57;98801.97;;;11.63;60.53
70200;BME280;57587;55.688;37.600;2022-09-01T03:19:26;98798.25;;;11.71;60.65
70200;BME280;57587;55.688;37.600;2022-09-01T03:22:08;98799.06;;;11.85;59.96
70200;BME280;57587;55.688;37.600;2022-09-01T03:24:36;98800.88;;;11.97;59.12
70200;BME280;57587;55.688;37.600;2022-09-01T03:27:04;98795.63;;;12.16;59.01
70200;BME280;57587;55.688;37.600;2022-09-01T03:29:32;98792.50;;;12.26;58.49
70200;BME280;57587;55.688;37.600;2022-09-01T03:32:01;98793.53;;;12.25;57.95
70200;BME280;57587;55.688;37.600;2022-09-01T03:34:28;98789.81;;;12.26;58.21
70200;BME280;57587;55.688;37.600;2022-09-01T03:36:55;98803.88;;;12.21;58.19
70200;BME280;57587;55.688;37.600;2022-09-01T03:39:25;98799.09;;;12.30;58.11
70200;BME280;57587;55.688;37.600;2022-09-01T03:41:52;98798.03;;;12.37;58.05
70200;BME280;57587;55.688;37.600;2022-09-01T03:44:19;98803.56;;;12.42;57.40
70200;BME280;57587;55.688;37.600;2022-09-01T03:46:47;98815.31;;;12.41;57.08
70200;BME280;57587;55.688;37.600;2022-09-01T03:49:16;98814.91;;;12.44;56.71
70200;BME280;57587;55.688;37.600;2022-09-01T03:51:55;98804.63;;;12.35;56.67
70200;BME280;57587;55.688;37.600;2022-09-01T03:54:24;98800.69;;;12.37;56.51
70200;BME280;57587;55.688;37.600;2022-09-01T03:56:56;98802.88;;;12.54;56.39
70200;BME280;57587;55.688;37.600;2022-09-01T03:59:26;98786.53;;;12.62;55.37
70200;BME280;57587;55.688;37.600;2022-09-01T04:01:56;98804.88;;;12.65;55.30
70200;BME280;57587;55.688;37.600;2022-09-01T04:04:24;98795.56;;;13.49;52.83
70200;BME280;57587;55.688;37.600;2022-09-01T04:06:51;98813.13;;;13.27;52.28
70200;BME280;57587;55.688;37.600;2022-09-01T04:09:19;98797.41;;;13.30;52.79
70200;BME280;57587;55.688;37.600;2022-09-01T04:11:47;98798.16;;;13.37;52.93
70200;BME280;57587;55.688;37.600;2022-09-01T04:14:15;98799.75;;;13.45;52.12
70200;BME280;57587;55.688;37.600;2022-09-01T04:16:44;98793.25;;;13.53;52.27
70200;BME280;57587;55.688;37.600;2022-09-01T04:19:34;98800.75;;;13.69;51.17
70200;BME280;57587;55.688;37.600;2022-09-01T04:22:03;98803.75;;;13.79;50.59
70200;BME280;57587;55.688;37.600;2022-09-01T04:24:40;98808.22;;;13.67;50.69
70200;BME280;57587;55.688;37.600;2022-09-01T04:27:12;98800.75;;;13.51;50.97
70200;BME280;57587;55.688;37.600;2022-09-01T04:29:40;98791.97;;;13.37;51.86
70200;BME280;57587;55.688;37.600;2022-09-01T04:32:08;98807.09;;;13.31;51.56
70200;BME280;57587;55.688;37.600;2022-09-01T04:34:42;98804.06;;;13.21;51.48
70200;BME280;57587;55.688;37.600;2022-09-01T04:37:18;98797.75;;;13.09;51.52
70200;BME280;57587;55.688;37.600;2022-09-01T04:39:52;98808.34;;;13.04;52.53
70200;BME280;57587;55.688;37.600;2022-09-01T04:42:30;98808.38;;;12.97;52.45
70200;BME280;57587;55.688;37.600;2022-09-01T04:45:01;98812.38;;;12.88;53.00
70200;BME280;57587;55.688;37.600;2022-09-01T04:47:37;98817.78;;;12.81;53.19
70200;BME280;57587;55.688;37.600;2022-09-01T04:50:11;98813.34;;;12.93;53.08
70200;BME280;57587;55.688;37.600;2022-09-01T04:53:04;98816.84;;;13.01;52.87
70200;BME280;57587;55.688;37.600;2022-09-01T04:55:39;98812.88;;;13.03;51.82
70200;BME280;57587;55.688;37.600;2022-09-01T04:58:16;98817.38;;;13.09;51.75
70200;BME280;57587;55.688;37.600;2022-09-01T05:00:48;98801.94;;;13.05;51.34
70200;BME280;57587;55.688;37.600;2022-09-01T05:03:21;98816.56;;;13.09;51.32
70200;BME280;57587;55.688;37.600;2022-09-01T05:06:15;98825.38;;;13.16;50.88
70200;BME280;57587;55.688;37.600;2022-09-01T05:08:58;98808.06;;;13.12;50.44
70200;BME280;57587;55.688;37.600;2022-09-01T05:11:45;98813.16;;;13.20;50.71
70200;BME280;57587;55.688;37.600;2022-09-01T05:14:27;98813.97;;;13.27;50.62
70200;BME280;57587;55.688;37.600;2022-09-01T05:16:56;98821.41;;;13.25;50.42
70200;BME280;57587;55.688;37.600;2022-09-01T05:19:26;98812.31;;;13.26;50.49
70200;BME280;57587;55.688;37.600;2022-09-01T05:21:59;98815.34;;;13.05;50.59
70200;BME280;57587;55.688;37.600;2022-09-01T05:24:28;98825.56;;;13.21;50.66
70200;BME280;57587;55.688;37.600;2022-09-01T05:26:58;98833.88;;;13.13;50.03
70200;BME280;57587;55.688;37.600;2022-09-01T05:29:27;98829.34;;;13.13;50.16
70200;BME280;57587;55.688;37.600;2022-09-01T05:31:58;98821.88;;;13.15;50.02
70200;BME280;57587;55.688;37.600;2022-09-01T05:34:26;98819.13;;;13.22;50.17
70200;BME280;57587;55.688;37.600;2022-09-01T05:36:58;98829.81;;;13.35;50.19
70200;BME280;57587;55.688;37.600;2022-09-01T05:39:26;98829.13;;;13.40;49.48
70200;BME280;57587;55.688;37.600;2022-09-01T05:41:55;98839.81;;;13.47;49.83
70200;BME280;57587;55.688;37.600;2022-09-01T05:44:24;98824.03;;;13.57;48.99
70200;BME280;57587;55.688;37.600;2022-09-01T05:46:53;98822.31;;;13.63;48.84
70200;BME280;57587;55.688;37.600;2022-09-01T05:49:28;98829.41;;;13.57;48.16
70200;BME280;57587;55.688;37.600;2022-09-01T05:51:57;98826.88;;;13.62;48.21
70200;BME280;57587;55.688;37.600;2022-09-01T05:54:27;98829.06;;;13.47;47.78
70200;BME280;57587;55.688;37.600;2022-09-01T05:56:56;98819.56;;;13.51;47.11
70200;BME280;57587;55.688;37.600;2022-09-01T05:59:46;98824.94;;;13.51;47.41
70200;BME280;57587;55.688;37.600;2022-09-01T06:02:23;98821.25;;;13.45;47.85
70200;BME280;57587;55.688;37.600;2022-09-01T06:04:55;98828.63;;;13.50;46.93
70200;BME280;57587;55.688;37.600;2022-09-01T06:07:28;98836.88;;;13.55;47.67
70200;BME280;57587;55.688;37.600;2022-09-01T06:09:59;98828.38;;;13.58;47.15
70200;BME280;57587;55.688;37.600;2022-09-01T06:12:28;98821.94;;;13.59;47.27
70200;BME280;57587;55.688;37.600;2022-09-01T06:14:56;98833.28;;;13.61;47.02
70200;BME280;57587;55.688;37.600;2022-09-01T06:17:25;98827.25;;;13.66;47.24
70200;BME280;57587;55.688;37.600;2022-09-01T06:19:56;98824.34;;;13.67;46.03
70200;BME280;57587;55.688;37.600;2022-09-01T06:22:25;98829.28;;;13.70;47.01
70200;BME280;57587;55.688;37.600;2022-09-01T06:24:54;98834.06;;;13.87;47.16
70200;BME280;57587;55.688;37.600;2022-09-01T06:27:32;98820.34;;;13.95;46.33
70200;BME280;57587;55.688;37.600;2022-09-01T06:29:59;98831.38;;;13.87;45.08
70200;BME280;57587;55.688;37.600;2022-09-01T06:32:34;98826.59;;;13.89;45.66
70200;BME280;57587;55.688;37.600;2022-09-01T06:35:04;98820.72;;;13.98;45.34
70200;BME280;57587;55.688;37.600;2022-09-01T06:37:35;98821.97;;;14.14;44.64
70200;BME280;57587;55.688;37.600;2022-09-01T06:40:06;98830.31;;;14.24;43.90
70200;BME280;57587;55.688;37.600;2022-09-01T06:42:36;98828.69;;;14.23;43.79
70200;BME280;57587;55.688;37.600;2022-09-01T06:45:04;98817.31;;;14.21;43.80
70200;BME280;57587;55.688;37.600;2022-09-01T06:47:36;98816.88;;;14.24;43.79
70200;BME280;57587;55.688;37.600;2022-09-01T06:50:03;98831.84;;;14.20;43.90
70200;BME280;57587;55.688;37.600;2022-09-01T06:52:37;98829.50;;;14.24;44.23
70200;BME280;57587;55.688;37.600;2022-09-01T06:55:26;98835.13;;;14.22;44.57
70200;BME280;57587;55.688;37.600;2022-09-01T06:58:01;98832.66;;;14.21;44.45
70200;BME280;57587;55.688;37.600;2022-09-01T07:00:34;98836.19;;;14.03;45.26
70200;BME280;57587;55.688;37.600;2022-09-01T07:03:12;98839.91;;;14.02;45.52
70200;BME280;57587;55.688;37.600;2022-09-01T07:06:04;98842.28;;;13.92;45.91
70200;BME280;57587;55.688;37.600;2022-09-01T07:09:02;98826.44;;;13.83;46.52
70200;BME280;57587;55.688;37.600;2022-09-01T07:12:16;98847.50;;;13.87;46.85
70200;BME280;57587;55.688;37.600;2022-09-01T07:14:55;98849.31;;;13.93;46.19
70200;BME280;57587;55.688;37.600;2022-09-01T07:17:49;98841.56;;;13.84;46.51
70200;BME280;57587;55.688;37.600;2022-09-01T07:20:22;98845.63;;;13.87;46.75
70200;BME280;57587;55.688;37.600;2022-09-01T07:22:52;98851.91;;;13.81;46.21
70200;BME280;57587;55.688;37.600;2022-09-01T07:25:38;98841.22;;;13.74;47.70
70200;BME280;57587;55.688;37.600;2022-09-01T07:28:49;98856.34;;;13.94;47.17
70200;BME280;57587;55.688;37.600;2022-09-01T07:31:25;98840.97;;;14.01;46.81
70200;BME280;57587;55.688;37.600;2022-09-01T07:34:13;98832.44;;;14.04;46.39
70200;BME280;57587;55.688;37.600;2022-09-01T07:37:03;98830.28;;;13.94;45.96
70200;BME280;57587;55.688;37.600;2022-09-01T07:39:51;98852.16;;;13.98;47.13
70200;BME280;57587;55.688;37.600;2022-09-01T07:42:37;98845.63;;;13.87;47.13
70200;BME280;57587;55.688;37.600;2022-09-01T07:45:47;98838.03;;;14.02;47.11
70200;BME280;57587;55.688;37.600;2022-09-01T07:48:35;98841.09;;;14.24;46.58
70200;BME280;57587;55.688;37.600;2022-09-01T07:51:24;98852.25;;;14.28;45.56
70200;BME280;57587;55.688;37.600;2022-09-01T07:54:08;98841.53;;;14.21;44.97
70200;BME280;57587;55.688;37.600;2022-09-01T07:56:40;98843.63;;;14.38;45.46
70200;BME280;57587;55.688;37.600;2022-09-01T07:59:09;98837.91;;;14.46;45.46
70200;BME280;57587;55.688;37.600;2022-09-01T08:01:53;98837.34;;;14.62;45.80
70200;BME280;57587;55.688;37.600;2022-09-01T08:04:22;98841.53;;;14.58;44.63
70200;BME280;57587;55.688;37.600;2022-09-01T08:06:49;98842.72;;;14.62;44.33
70200;BME280;57587;55.688;37.600;2022-09-01T08:09:17;98846.25;;;15.05;43.70
70200;BME280;57587;55.688;37.600;2022-09-01T08:12:01;98842.16;;;15.14;43.42
70200;BME280;57587;55.688;37.600;2022-09-01T08:14:32;98840.00;;;15.34;42.61
70200;BME280;57587;55.688;37.600;2022-09-01T08:17:00;98843.63;;;15.40;41.41
70200;BME280;57587;55.688;37.600;2022-09-01T08:19:43;98842.72;;;15.81;40.90
70200;BME280;57587;55.688;37.600;2022-09-01T08:22:20;98847.41;;;15.98;40.45
70200;BME280;57587;55.688;37.600;2022-09-01T08:25:00;98847.66;;;15.96;40.52
70200;BME280;57587;55.688;37.600;2022-09-01T08:27:30;98839.69;;;15.89;40.13
70200;BME280;57587;55.688;37.600;2022-09-01T08:30:07;98849.25;;;15.50;40.66
70200;BME280;57587;55.688;37.600;2022-09-01T08:32:35;98848.31;;;15.21;40.72
70200;BME280;57587;55.688;37.600;2022-09-01T08:35:04;98850.75;;;14.81;41.70
70200;BME280;57587;55.688;37.600;2022-09-01T08:37:31;98856.59;;;14.78;41.99
70200;BME280;57587;55.688;37.600;2022-09-01T08:39:58;98856.78;;;14.94;42.78
70200;BME280;57587;55.688;37.600;2022-09-01T08:45:22;98859.72;;;14.93;41.99
70200;BME280;57587;55.688;37.600;2022-09-01T08:47:52;98862.72;;;14.85;41.92
70200;BME280;57587;55.688;37.600;2022-09-01T08:50:43;98862.31;;;14.69;41.70
70200;BME280;57587;55.688;37.600;2022-09-01T08:53:40;98853.03;;;14.65;41.89
70200;BME280;57587;55.688;37.600;2022-09-01T08:56:10;98870.88;;;14.78;41.83
70200;BME280;57587;55.688;37.600;2022-09-01T08:58:38;98859.59;;;14.99;41.20
70200;BME280;57587;55.688;37.600;2022-09-01T09:01:35;98864.69;;;15.19;40.69
70200;BME280;57587;55.688;37.600;2022-09-01T09:07:11;98862.72;;;15.38;41.64
70200;BME280;57587;55.688;37.600;2022-09-01T09:09:58;98875.16;;;15.51;40.38
70200;BME280;57587;55.688;37.600;2022-09-01T09:12:43;98859.59;;;15.53;40.71
70200;BME280;57587;55.688;37.600;2022-09-01T09:18:36;98879.25;;;15.42;40.66
70200;BME280;57587;55.688;37.600;2022-09-01T09:21:20;98881.00;;;15.48;40.84
70200;BME280;57587;55.688;37.600;2022-09-01T09:26:49;98881.38;;;15.40;41.09
70200;BME280;57587;55.688;37.600;2022-09-01T09:29:17;98882.50;;;15.32;41.07
70200;BME280;57587;55.688;37.600;2022-09-01T09:31:45;98894.47;;;15.25;41.56
70200;BME280;57587;55.688;37.600;2022-09-01T09:36:44;98903.22;;;15.20;41.96
70200;BME280;57587;55.688;37.600;2022-09-01T09:39:21;98897.94;;;15.13;41.66
70200;BME280;57587;55.688;37.600;2022-09-01T09:42:07;98901.19;;;15.04;41.73
70200;BME280;57587;55.688;37.600;2022-09-01T09:44:44;98902.00;;;15.04;42.03
70200;BME280;57587;55.688;37.600;2022-09-01T09:47:46;98903.53;;;15.00;42.19
70200;BME280;57587;55.688;37.600;2022-09-01T09:50:30;98901.59;;;15.19;41.41
70200;BME280;57587;55.688;37.600;2022-09-01T09:56:02;98901.63;;;15.31;40.42
70200;BME280;57587;55.688;37.600;2022-09-01T09:58:39;98909.22;;;15.22;40.44
70200;BME280;57587;55.688;37.600;2022-09-01T10:03:52;98907.72;;;14.96;41.81
70200;BME280;57587;55.688;37.600;2022-09-01T10:06:42;98918.63;;;15.01;41.79
70200;BME280;57587;55.688;37.600;2022-09-01T10:09:34;98915.84;;;15.08;41.10
70200;BME280;57587;55.688;37.600;2022-09-01T10:12:01;98912.00;;;15.15;41.78
70200;BME280;57587;55.688;37.600;2022-09-01T10:14:37;98923.97;;;15.19;41.41
70200;BME280;57587;55.688;37.600;2022-09-01T10:17:42;98933.69;;;15.20;40.80
70200;BME280;57587;55.688;37.600;2022-09-01T10:20:17;98932.91;;;15.02;40.75
70200;BME280;57587;55.688;37.600;2022-09-01T10:22:48;98928.25;;;14.79;41.05
70200;BME280;57587;55.688;37.600;2022-09-01T10:25:19;98927.72;;;14.88;41.45
70200;BME280;57587;55.688;37.600;2022-09-01T10:27:50;98925.19;;;14.75;40.97
70200;BME280;57587;55.688;37.600;2022-09-01T10:30:21;98920.28;;;14.53;41.33
70200;BME280;57587;55.688;37.600;2022-09-01T10:32:56;98931.41;;;14.57;41.64
70200;BME280;57587;55.688;37.600;2022-09-01T10:35:36;98936.53;;;14.77;41.76
70200;BME280;57587;55.688;37.600;2022-09-01T10:38:14;98924.41;;;14.86;41.66
70200;BME280;57587;55.688;37.600;2022-09-01T10:41:09;98934.53;;;15.33;41.67
70200;BME280;57587;55.688;37.600;2022-09-01T10:44:10;98930.69;;;15.71;40.49
70200;BME280;57587;55.688;37.600;2022-09-01T10:46:43;98924.47;;;15.82;39.72
70200;BME280;57587;55.688;37.600;2022-09-01T10:52:04;98936.84;;;15.59;39.11
70200;BME280;57587;55.688;37.600;2022-09-01T10:59:53;98925.50;;;15.69;39.67
70200;BME280;57587;55.688;37.600;2022-09-01T11:02:26;98928.75;;;15.59;38.97
70200;BME280;57587;55.688;37.600;2022-09-01T11:07:31;98930.34;;;15.67;39.61
70200;BME280;57587;55.688;37.600;2022-09-01T11:15:47;98936.22;;;15.34;40.69
70200;BME280;57587;55.688;37.600;2022-09-01T11:18:28;98931.47;;;15.17;40.37
70200;BME280;57587;55.688;37.600;2022-09-01T11:21:14;98942.00;;;15.19;40.37
70200;BME280;57587;55.688;37.600;2022-09-01T11:23:44;98932.75;;;15.27;39.80
70200;BME280;57587;55.688;37.600;2022-09-01T11:26:47;98925.34;;;15.52;39.88
70200;BME280;57587;55.688;37.600;2022-09-01T11:29:49;98929.28;;;15.68;39.46
70200;BME280;57587;55.688;37.600;2022-09-01T11:32:23;98925.63;;;15.74;39.23
70200;BME280;57587;55.688;37.600;2022-09-01T11:34:51;98924.94;;;16.02;38.79
70200;BME280;57587;55.688;37.600;2022-09-01T11:37:22;98919.09;;;16.17;38.07
70200;BME280;57587;55.688;37.600;2022-09-01T11:39:57;98926.72;;;16.08;38.08
70200;BME280;57587;55.688;37.600;2022-09-01T11:42:28;98913.81;;;16.10;38.40
70200;BME280;57587;55.688;37.600;2022-09-01T11:45:12;98917.31;;;15.99;38.23
70200;BME280;57587;55.688;37.600;2022-09-01T11:47:56;98918.13;;;15.88;38.40
70200;BME280;57587;55.688;37.600;2022-09-01T11:50:31;98920.94;;;15.81;38.58
70200;BME280;57587;55.688;37.600;2022-09-01T11:53:07;98916.50;;;15.99;38.63
70200;BME280;57587;55.688;37.600;2022-09-01T11:55:42;98919.31;;;16.16;38.48
70200;BME280;57587;55.688;37.600;2022-09-01T11:58:13;98916.81;;;16.26;38.94
70200;BME280;57587;55.688;37.600;2022-09-01T12:00:56;98904.88;;;16.22;39.83
70200;BME280;57587;55.688;37.600;2022-09-01T12:03:28;98915.66;;;16.10;40.19
70200;BME280;57587;55.688;37.600;2022-09-01T12:05:59;98906.19;;;15.96;39.42
70200;BME280;57587;55.688;37.600;2022-09-01T12:08:31;98916.03;;;16.02;39.51
70200;BME280;57587;55.688;37.600;2022-09-01T12:11:10;98910.03;;;16.00;38.96
70200;BME280;57587;55.688;37.600;2022-09-01T12:13:40;98910.28;;;15.98;38.95
70200;BME280;57587;55.688;37.600;2022-09-01T12:16:08;98909.34;;;15.93;38.54
70200;BME280;57587;55.688;37.600;2022-09-01T12:18:47;98907.13;;;15.89;39.06
70200;BME280;57587;55.688;37.600;2022-09-01T12:23:49;98909.44;;;16.09;38.68
70200;BME280;57587;55.688;37.600;2022-09-01T12:26:25;98898.31;;;16.18;38.48
70200;BME280;57587;55.688;37.600;2022-09-01T12:28:53;98896.31;;;16.13;38.76
70200;BME280;57587;55.688;37.600;2022-09-01T12:31:23;98905.56;;;16.29;39.01
70200;BME280;57587;55.688;37.600;2022-09-01T12:33:52;98895.31;;;16.43;38.66
70200;BME280;57587;55.688;37.600;2022-09-01T12:36:27;98900.44;;;16.56;38.68
70200;BME280;57587;55.688;37.600;2022-09-01T12:39:19;98892.66;;;16.71;37.98
70200;BME280;57587;55.688;37.600;2022-09-01T12:41:46;98891.97;;;16.76;37.31
70200;BME280;57587;55.688;37.600;2022-09-01T12:47:01;98884.66;;;16.36;36.64
70200;BME280;57587;55.688;37.600;2022-09-01T12:54:47;98886.69;;;16.17;36.63
70200;BME280;57587;55.688;37.600;2022-09-01T12:57:32;98890.31;;;16.23;36.52
70200;BME280;57587;55.688;37.600;2022-09-01T13:02:48;98881.91;;;16.07;36.09
70200;BME280;57587;55.688;37.600;2022-09-01T13:05:21;98876.25;;;16.21;37.05
70200;BME280;57587;55.688;37.600;2022-09-01T13:08:02;98875.78;;;16.24;36.20
70200;BME280;57587;55.688;37.600;2022-09-01T13:10:37;98873.63;;;16.26;36.45
70200;BME280;57587;55.688;37.600;2022-09-01T13:13:06;98871.06;;;16.31;36.20
70200;BME280;57587;55.688;37.600;2022-09-01T13:15:34;98864.03;;;16.30;36.32
70200;BME280;57587;55.688;37.600;2022-09-01T13:18:04;98870.91;;;16.37;36.65
70200;BME280;57587;55.688;37.600;2022-09-01T13:20:31;98867.88;;;16.34;36.31
70200;BME280;57587;55.688;37.600;2022-09-01T13:23:01;98867.00;;;16.17;36.19
70200;BME280;57587;55.688;37.600;2022-09-01T13:25:28;98874.50;;;16.14;36.96
70200;BME280;57587;55.688;37.600;2022-09-01T13:27:56;98875.19;;;16.10;37.45
70200;BME280;57587;55.688;37.600;2022-09-01T13:30:34;98861.25;;;16.01;36.63
70200;BME280;57587;55.688;37.600;2022-09-01T13:33:01;98880.16;;;15.89;37.51
70200;BME280;57587;55.688;37.600;2022-09-01T13:35:49;98860.66;;;15.87;37.43
70200;BME280;57587;55.688;37.600;2022-09-01T13:38:17;98876.50;;;15.84;37.88
70200;BME280;57587;55.688;37.600;2022-09-01T13:40:46;98876.97;;;15.81;38.15
70200;BME280;57587;55.688;37.600;2022-09-01T13:43:15;98871.13;;;15.84;38.33
70200;BME280;57587;55.688;37.600;2022-09-01T13:45:43;98872.75;;;15.85;38.68
70200;BME280;57587;55.688;37.600;2022-09-01T13:48:11;98861.47;;;15.88;38.51
70200;BME280;57587;55.688;37.600;2022-09-01T13:50:52;98861.84;;;15.80;39.37
70200;BME280;57587;55.688;37.600;2022-09-01T13:53:39;98864.66;;;15.73;39.53
70200;BME280;57587;55.688;37.600;2022-09-01T13:56:06;98858.91;;;15.70;39.50
70200;BME280;57587;55.688;37.600;2022-09-01T13:58:33;98868.50;;;15.65;39.62
70200;BME280;57587;55.688;37.600;2022-09-01T14:01:00;98868.28;;;15.55;40.42
70200;BME280;57587;55.688;37.600;2022-09-01T14:03:28;98870.38;;;15.53;40.21
70200;BME280;57587;55.688;37.600;2022-09-01T14:05:58;98868.59;;;15.47;40.49
70200;BME280;57587;55.688;37.600;2022-09-01T14:08:25;98878.22;;;15.43;40.59
70200;BME280;57587;55.688;37.600;2022-09-01T14:10:52;98868.81;;;15.34;40.35
70200;BME280;57587;55.688;37.600;2022-09-01T14:13:21;98872.44;;;15.28;40.61
70200;BME280;57587;55.688;37.600;2022-09-01T14:15:51;98872.78;;;15.31;41.03
70200;BME280;57587;55.688;37.600;2022-09-01T14:18:19;98887.88;;;15.20;42.41
70200;BME280;57587;55.688;37.600;2022-09-01T14:20:50;98883.28;;;15.09;44.08